sensor_id;sensor_type;location;lat;lon;timestamp;pressure;altitude;pressure_sealevel;temperature;humidity
63088;BME280;49173;43.164;27.786;2023-04-25T00:01:05;99917.84;;;12.80;85.77
63088;BME280;49173;43.164;27.786;2023-04-25T00:03:31;99913.34;;;12.81;85.96
63088;BME280;49173;43.164;27.786;2023-04-25T00:06:00;99910.75;;;12.79;86.07
63088;BME280;49173;43.164;27.786;2023-04-25T00:08:29;99911.84;;;12.77;85.80
63088;BME280;49173;43.164;27.786;2023-04-25T00:10:56;99914.84;;;12.72;85.89
63088;BME280;49173;43.164;27.786;2023-04-25T00:13:22;99914.00;;;12.72;85.74
63088;BME280;49173;43.164;27.786;2023-04-25T00:15:48;99902.56;;;12.68;85.62
63088;BME280;49173;43.164;27.786;2023-04-25T00:18:14;99904.31;;;12.69;85.98
63088;BME280;49173;43.164;27.786;2023-04-25T00:20:40;99894.72;;;12.52;86.21
63088;BME280;49173;43.164;27.786;2023-04-25T00:23:18;99890.84;;;12.44;87.14
63088;BME280;49173;43.164;27.786;2023-04-25T00:25:48;99889.44;;;12.38;87.58
63088;BME280;49173;43.164;27.786;2023-04-25T00:28:15;99893.97;;;12.37;87.79
63088;BME280;49173;43.164;27.786;2023-04-25T00:30:42;99889.56;;;12.36;88.22
63088;BME280;49173;43.164;27.786;2023-04-25T00:33:08;99880.31;;;12.41;87.81
63088;BME280;49173;43.164;27.786;2023-04-25T00:35:35;99876.44;;;12.45;87.59
63088;BME280;49173;43.164;27.786;2023-04-25T00:38:01;99895.81;;;12.50;87.56
63088;BME280;49173;43.164;27.786;2023-04-25T00:40:28;99892.69;;;12.56;86.99
63088;BME280;49173;43.164;27.786;2023-04-25T00:42:54;99888.06;;;12.58;86.65
63088;BME280;49173;43.164;27.786;2023-04-25T00:45:20;99883.53;;;12.58;86.28
63088;BME280;49173;43.164;27.786;2023-04-25T00:47:46;99883.63;;;12.57;86.64
63088;BME280;49173;43.164;27.786;2023-04-25T00:50:15;99887.06;;;12.59;86.19
63088;BME280;49173;43.164;27.786;2023-04-25T00:52:43;99878.13;;;12.58;85.65
63088;BME280;49173;43.164;27.786;2023-04-25T00:55:11;99873.72;;;12.57;85.71
63088;BME280;49173;43.164;27.786;2023-04-25T00:57:38;99878.25;;;12.57;85.58
63088;BME280;49173;43.164;27.786;2023-04-25T01:00:05;99869.53;;;12.53;86.07
63088;BME280;49173;43.164;27.786;2023-04-25T01:02:33;99878.13;;;12.46;86.27
63088;BME280;49173;43.164;27.786;2023-04-25T01:05:01;99862.09;;;12.44;86.63
63088;BME280;49173;43.164;27.786;2023-04-25T01:07:27;99859.31;;;12.46;86.49
63088;BME280;49173;43.164;27.786;2023-04-25T01:09:53;99853.91;;;12.46;86.32
63088;BME280;49173;43.164;27.786;2023-04-25T01:12:19;99855.13;;;12.42;86.49
63088;BME280;49173;43.164;27.786;2023-04-25T01:14:45;99846.94;;;12.43;86.30
63088;BME280;49173;43.164;27.786;2023-04-25T01:17:11;99851.47;;;12.43;86.30
63088;BME280;49173;43.164;27.786;2023-04-25T01:19:38;99842.53;;;12.42;86.47
63088;BME280;49173;43.164;27.786;2023-04-25T01:22:04;99837.03;;;12.44;86.32
63088;BME280;49173;43.164;27.786;2023-04-25T01:24:33;99845.09;;;12.44;86.13
63088;BME280;49173;43.164;27.786;2023-04-25T01:27:00;99844.97;;;12.45;86.11
63088;BME280;49173;43.164;27.786;2023-04-25T01:29:27;99840.56;;;12.44;85.98
63088;BME280;49173;43.164;27.786;2023-04-25T01:31:54;99849.50;;;12.45;85.73
63088;BME280;49173;43.164;27.786;2023-04-25T01:34:20;99838.00;;;12.43;85.29
63088;BME280;49173;43.164;27.786;2023-04-25T01:36:50;99836.28;;;12.42;85.66
63088;BME280;49173;43.164;27.786;2023-04-25T01:39:16;99824.88;;;12.38;85.98
63088;BME280;49173;43.164;27.786;2023-04-25T01:41:43;99817.53;;;12.40;85.84
63088;BME280;49173;43.164;27.786;2023-04-25T01:44:09;99822.91;;;12.40;86.11
63088;BME280;49173;43.164;27.786;2023-04-25T01:46:34;99817.66;;;12.38;86.34
63088;BME280;49173;43.164;27.786;2023-04-25T01:49:00;99812.16;;;12.40;86.48
63088;BME280;49173;43.164;27.786;2023-04-25T01:51:26;99812.16;;;12.40;86.35
63088;BME280;49173;43.164;27.786;2023-04-25T01:53:52;99806.88;;;12.38;86.63
63088;BME280;49173;43.164;27.786;2023-04-25T01:56:19;99802.72;;;12.34;86.69
63088;BME280;49173;43.164;27.786;2023-04-25T01:58:45;99799.03;;;12.35;86.75
63088;BME280;49173;43.164;27.786;2023-04-25T02:01:11;99803.34;;;12.38;87.29
63088;BME280;49173;43.164;27.786;2023-04-25T02:03:37;99803.44;;;12.36;87.64
63088;BME280;49173;43.164;27.786;2023-04-25T02:06:03;99805.06;;;12.39;87.59
63088;BME280;49173;43.164;27.786;2023-04-25T02:08:29;99807.84;;;12.37;86.86
63088;BME280;49173;43.164;27.786;2023-04-25T02:10:55;99810.78;;;12.34;87.12
63088;BME280;49173;43.164;27.786;2023-04-25T02:13:21;99793.66;;;12.35;86.89
63088;BME280;49173;43.164;27.786;2023-04-25T02:15:47;99796.78;;;12.29;87.14
63088;BME280;49173;43.164;27.786;2023-04-25T02:18:13;99787.97;;;12.27;87.84
63088;BME280;49173;43.164;27.786;2023-04-25T02:20:41;99787.00;;;12.28;88.20
63088;BME280;49173;43.164;27.786;2023-04-25T02:23:10;99784.19;;;12.30;88.17
63088;BME280;49173;43.164;27.786;2023-04-25T02:25:35;99774.28;;;12.30;88.34
63088;BME280;49173;43.164;27.786;2023-04-25T02:28:01;99778.94;;;12.28;88.28
63088;BME280;49173;43.164;27.786;2023-04-25T02:30:27;99766.44;;;12.27;88.04
63088;BME280;49173;43.164;27.786;2023-04-25T02:32:53;99775.38;;;12.28;88.26
63088;BME280;49173;43.164;27.786;2023-04-25T02:35:19;99764.50;;;12.29;87.92
63088;BME280;49173;43.164;27.786;2023-04-25T02:37:45;99759.97;;;12.30;87.80
63088;BME280;49173;43.164;27.786;2023-04-25T02:40:11;99769.13;;;12.27;87.79
63088;BME280;49173;43.164;27.786;2023-04-25T02:42:37;99758.56;;;12.24;87.30
63088;BME280;49173;43.164;27.786;2023-04-25T02:45:03;99762.97;;;12.25;86.84
63088;BME280;49173;43.164;27.786;2023-04-25T02:47:29;99759.66;;;12.22;86.30
63088;BME280;49173;43.164;27.786;2023-04-25T02:49:54;99760.97;;;12.16;86.21
63088;BME280;49173;43.164;27.786;2023-04-25T02:52:20;99764.63;;;12.15;85.99
63088;BME280;49173;43.164;27.786;2023-04-25T02:54:46;99752.56;;;12.08;85.41
63088;BME280;49173;43.164;27.786;2023-04-25T02:57:12;99753.97;;;12.01;85.58
63088;BME280;49173;43.164;27.786;2023-04-25T02:59:38;99739.00;;;11.97;84.84
63088;BME280;49173;43.164;27.786;2023-04-25T03:02:03;99744.75;;;11.92;85.71
63088;BME280;49173;43.164;27.786;2023-04-25T03:04:29;99747.44;;;11.92;86.24
63088;BME280;49173;43.164;27.786;2023-04-25T03:06:55;99742.06;;;11.92;86.58
63088;BME280;49173;43.164;27.786;2023-04-25T03:09:21;99749.25;;;11.92;87.40
63088;BME280;49173;43.164;27.786;2023-04-25T03:11:47;99743.88;;;11.92;87.31
63088;BME280;49173;43.164;27.786;2023-04-25T03:14:13;99752.81;;;11.92;87.12
63088;BME280;49173;43.164;27.786;2023-04-25T03:16:39;99746.56;;;11.92;86.99
63088;BME280;49173;43.164;27.786;2023-04-25T03:19:05;99738.81;;;11.87;86.20
63088;BME280;49173;43.164;27.786;2023-04-25T03:21:35;99734.59;;;11.83;85.93
63088;BME280;49173;43.164;27.786;2023-04-25T03:24:03;99735.69;;;11.80;85.70
63088;BME280;49173;43.164;27.786;2023-04-25T03:26:29;99741.34;;;11.76;85.35
63088;BME280;49173;43.164;27.786;2023-04-25T03:28:55;99737.91;;;11.74;85.50
63088;BME280;49173;43.164;27.786;2023-04-25T03:31:21;99739.75;;;11.73;86.18
63088;BME280;49173;43.164;27.786;2023-04-25T03:33:49;99735.13;;;11.75;86.14
63088;BME280;49173;43.164;27.786;2023-04-25T03:36:16;99737.06;;;11.73;86.27
63088;BME280;49173;43.164;27.786;2023-04-25T03:38:43;99736.31;;;11.71;86.03
63088;BME280;49173;43.164;27.786;2023-04-25T03:41:12;99735.53;;;11.69;86.20
63088;BME280;49173;43.164;27.786;2023-04-25T03:43:41;99732.84;;;11.69;86.17
63088;BME280;49173;43.164;27.786;2023-04-25T03:46:09;99730.28;;;11.68;86.35
63088;BME280;49173;43.164;27.786;2023-04-25T03:48:36;99724.78;;;11.69;86.65
63088;BME280;49173;43.164;27.786;2023-04-25T03:51:06;99722.88;;;11.71;87.42
63088;BME280;49173;43.164;27.786;2023-04-25T03:53:32;99720.19;;;11.71;87.10
63088;BME280;49173;43.164;27.786;2023-04-25T03:55:58;99722.88;;;11.71;86.67
63088;BME280;49173;43.164;27.786;2023-04-25T03:58:28;99727.28;;;11.72;86.86
63088;BME280;49173;43.164;27.786;2023-04-25T04:00:55;99727.53;;;11.95;87.65
63088;BME280;49173;43.164;27.786;2023-04-25T04:03:23;99725.22;;;12.27;86.58
63088;BME280;49173;43.164;27.786;2023-04-25T04:05:52;99725.34;;;12.62;85.88
63088;BME280;49173;43.164;27.786;2023-04-25T04:08:19;99726.69;;;13.04;84.50
63088;BME280;49173;43.164;27.786;2023-04-25T04:10:45;99731.19;;;13.63;83.95
63088;BME280;49173;43.164;27.786;2023-04-25T04:13:12;99719.94;;;14.36;81.39
63088;BME280;49173;43.164;27.786;2023-04-25T04:15:39;99714.91;;;15.08;77.89
63088;BME280;49173;43.164;27.786;2023-04-25T04:18:05;99712.84;;;15.75;74.83
63088;BME280;49173;43.164;27.786;2023-04-25T04:20:32;99699.13;;;16.28;71.25
63088;BME280;49173;43.164;27.786;2023-04-25T04:22:58;99710.19;;;16.55;69.23
63088;BME280;49173;43.164;27.786;2023-04-25T04:25:26;99706.72;;;16.84;68.30
63088;BME280;49173;43.164;27.786;2023-04-25T04:27:52;99704.94;;;17.13;67.17
63088;BME280;49173;43.164;27.786;2023-04-25T04:30:23;99711.91;;;17.35;65.24
63088;BME280;49173;43.164;27.786;2023-04-25T04:33:00;99701.75;;;17.56;64.72
63088;BME280;49173;43.164;27.786;2023-04-25T04:35:27;99701.72;;;17.76;63.57
63088;BME280;49173;43.164;27.786;2023-04-25T04:37:55;99699.16;;;17.84;63.43
63088;BME280;49173;43.164;27.786;2023-04-25T04:40:23;99697.47;;;17.64;62.31
63088;BME280;49173;43.164;27.786;2023-04-25T04:42:49;99708.63;;;17.32;64.22
63088;BME280;49173;43.164;27.786;2023-04-25T04:45:21;99699.06;;;17.18;64.87
63088;BME280;49173;43.164;27.786;2023-04-25T04:48:06;99700.47;;;17.02;66.42
63088;BME280;49173;43.164;27.786;2023-04-25T04:50:36;99699.22;;;17.07;67.29
63088;BME280;49173;43.164;27.786;2023-04-25T04:53:04;99710.34;;;17.13;66.77
63088;BME280;49173;43.164;27.786;2023-04-25T04:55:31;99699.78;;;17.20;66.17
63088;BME280;49173;43.164;27.786;2023-04-25T04:58:00;99694.63;;;17.26;65.84
63088;BME280;49173;43.164;27.786;2023-04-25T05:00:26;99699.91;;;17.38;65.42
63088;BME280;49173;43.164;27.786;2023-04-25T05:02:53;99684.75;;;17.45;64.84
63088;BME280;49173;43.164;27.786;2023-04-25T05:05:21;99699.19;;;17.55;65.16
63088;BME280;49173;43.164;27.786;2023-04-25T05:07:49;99695.00;;;17.70;65.62
63088;BME280;49173;43.164;27.786;2023-04-25T05:10:18;99696.13;;;17.87;64.73
63088;BME280;49173;43.164;27.786;2023-04-25T05:12:45;99698.38;;;18.01;64.82
63088;BME280;49173;43.164;27.786;2023-04-25T05:15:12;99683.63;;;18.14;63.96
63088;BME280;49173;43.164;27.786;2023-04-25T05:17:40;99682.88;;;18.21;63.57
63088;BME280;49173;43.164;27.786;2023-04-25T05:20:07;99695.16;;;18.25;62.29
63088;BME280;49173;43.164;27.786;2023-04-25T05:22:35;99690.53;;;18.35;62.96
63088;BME280;49173;43.164;27.786;2023-04-25T05:25:01;99683.88;;;18.48;60.62
63088;BME280;49173;43.164;27.786;2023-04-25T05:27:29;99680.56;;;18.54;59.30
63088;BME280;49173;43.164;27.786;2023-04-25T05:29:55;99681.94;;;18.40;58.39
63088;BME280;49173;43.164;27.786;2023-04-25T05:32:26;99678.22;;;18.31;59.68
63088;BME280;49173;43.164;27.786;2023-04-25T05:34:54;99681.06;;;18.39;60.62
63088;BME280;49173;43.164;27.786;2023-04-25T05:37:21;99676.69;;;18.56;58.70
63088;BME280;49173;43.164;27.786;2023-04-25T05:39:50;99677.44;;;18.76;58.75
63088;BME280;49173;43.164;27.786;2023-04-25T05:42:17;99668.19;;;18.87;56.44
63088;BME280;49173;43.164;27.786;2023-04-25T05:44:46;99665.31;;;18.88;55.77
63088;BME280;49173;43.164;27.786;2023-04-25T05:47:13;99658.16;;;18.87;55.46
63088;BME280;49173;43.164;27.786;2023-04-25T05:49:39;99666.25;;;18.79;54.26
63088;BME280;49173;43.164;27.786;2023-04-25T05:52:09;99661.31;;;18.65;54.87
63088;BME280;49173;43.164;27.786;2023-04-25T05:54:35;99654.13;;;18.46;54.58
63088;BME280;49173;43.164;27.786;2023-04-25T05:57:03;99651.19;;;18.39;54.02
63088;BME280;49173;43.164;27.786;2023-04-25T05:59:29;99652.13;;;18.21;54.33
63088;BME280;49173;43.164;27.786;2023-04-25T06:01:59;99651.88;;;18.14;55.44
63088;BME280;49173;43.164;27.786;2023-04-25T06:04:29;99656.00;;;18.18;56.73
63088;BME280;49173;43.164;27.786;2023-04-25T06:06:58;99651.22;;;18.30;59.90
63088;BME280;49173;43.164;27.786;2023-04-25T06:09:26;99646.44;;;18.42;57.94
63088;BME280;49173;43.164;27.786;2023-04-25T06:11:53;99638.03;;;18.62;57.40
63088;BME280;49173;43.164;27.786;2023-04-25T06:14:21;99639.56;;;18.75;53.74
63088;BME280;49173;43.164;27.786;2023-04-25T06:16:51;99644.88;;;18.66;53.29
63088;BME280;49173;43.164;27.786;2023-04-25T06:19:18;99638.63;;;18.56;53.93
63088;BME280;49173;43.164;27.786;2023-04-25T06:21:45;99640.41;;;18.48;54.60
63088;BME280;49173;43.164;27.786;2023-04-25T06:24:12;99639.00;;;18.44;55.47
63088;BME280;49173;43.164;27.786;2023-04-25T06:26:40;99631.84;;;18.43;54.36
63088;BME280;49173;43.164;27.786;2023-04-25T06:29:09;99643.31;;;18.36;54.41
63088;BME280;49173;43.164;27.786;2023-04-25T06:31:36;99630.41;;;18.21;54.57
63088;BME280;49173;43.164;27.786;2023-04-25T06:34:06;99625.25;;;18.18;55.14
63088;BME280;49173;43.164;27.786;2023-04-25T06:36:33;99617.16;;;18.35;56.24
63088;BME280;49173;43.164;27.786;2023-04-25T06:38:59;99620.91;;;18.52;55.62
63088;BME280;49173;43.164;27.786;2023-04-25T06:41:26;99624.47;;;18.80;56.60
63088;BME280;49173;43.164;27.786;2023-04-25T06:43:52;99636.44;;;19.05;54.09
63088;BME280;49173;43.164;27.786;2023-04-25T06:46:19;99627.88;;;19.18;54.60
63088;BME280;49173;43.164;27.786;2023-04-25T06:48:45;99619.22;;;19.23;53.33
63088;BME280;49173;43.164;27.786;2023-04-25T06:51:12;99614.72;;;19.31;54.01
63088;BME280;49173;43.164;27.786;2023-04-25T06:53:41;99610.03;;;19.41;53.85
63088;BME280;49173;43.164;27.786;2023-04-25T06:56:08;99611.84;;;19.59;54.04
63088;BME280;49173;43.164;27.786;2023-04-25T06:58:35;99608.06;;;19.78;52.87
63088;BME280;49173;43.164;27.786;2023-04-25T07:01:02;99616.84;;;19.97;52.77
63088;BME280;49173;43.164;27.786;2023-04-25T07:03:28;99603.28;;;20.14;51.76
63088;BME280;49173;43.164;27.786;2023-04-25T07:05:54;99609.13;;;20.19;50.82
63088;BME280;49173;43.164;27.786;2023-04-25T07:08:21;99611.38;;;20.32;52.21
63088;BME280;49173;43.164;27.786;2023-04-25T07:10:53;99608.31;;;20.43;51.74
63088;BME280;49173;43.164;27.786;2023-04-25T07:13:19;99607.41;;;20.60;51.76
63088;BME280;49173;43.164;27.786;2023-04-25T07:15:47;99587.13;;;20.79;50.99
63088;BME280;49173;43.164;27.786;2023-04-25T07:18:18;99596.00;;;20.81;50.87
63088;BME280;49173;43.164;27.786;2023-04-25T07:20:46;99595.66;;;20.84;49.80
63088;BME280;49173;43.164;27.786;2023-04-25T07:23:15;99589.22;;;20.93;50.39
63088;BME280;49173;43.164;27.786;2023-04-25T07:25:42;99593.97;;;20.91;50.42
63088;BME280;49173;43.164;27.786;2023-04-25T07:28:10;99592.78;;;20.94;50.68
63088;BME280;49173;43.164;27.786;2023-04-25T07:30:37;99599.94;;;21.03;52.80
63088;BME280;49173;43.164;27.786;2023-04-25T07:33:03;99585.81;;;21.16;51.46
63088;BME280;49173;43.164;27.786;2023-04-25T07:35:30;99586.34;;;21.35;52.76
63088;BME280;49173;43.164;27.786;2023-04-25T07:37:56;99579.47;;;21.39;50.62
63088;BME280;49173;43.164;27.786;2023-04-25T07:40:24;99576.09;;;21.37;47.49
63088;BME280;49173;43.164;27.786;2023-04-25T07:42:52;99566.19;;;21.45;49.97
63088;BME280;49173;43.164;27.786;2023-04-25T07:45:38;99562.53;;;21.60;50.18
63088;BME280;49173;43.164;27.786;2023-04-25T07:48:04;99564.06;;;21.63;49.53
63088;BME280;49173;43.164;27.786;2023-04-25T07:50:31;99562.06;;;21.57;49.60
63088;BME280;49173;43.164;27.786;2023-04-25T07:52:57;99558.31;;;21.50;49.78
63088;BME280;49173;43.164;27.786;2023-04-25T07:55:25;99550.28;;;21.48;50.33
63088;BME280;49173;43.164;27.786;2023-04-25T07:57:53;99557.97;;;21.53;50.24
63088;BME280;49173;43.164;27.786;2023-04-25T08:00:21;99554.41;;;21.44;50.02
63088;BME280;49173;43.164;27.786;2023-04-25T08:02:50;99557.66;;;21.39;50.31
63088;BME280;49173;43.164;27.786;2023-04-25T08:05:17;99559.03;;;21.35;50.04
63088;BME280;49173;43.164;27.786;2023-04-25T08:07:48;99561.91;;;21.26;50.70
63088;BME280;49173;43.164;27.786;2023-04-25T08:10:14;99563.44;;;21.20;50.80
63088;BME280;49173;43.164;27.786;2023-04-25T08:12:42;99559.69;;;21.13;49.72
63088;BME280;49173;43.164;27.786;2023-04-25T08:15:09;99557.84;;;20.89;49.38
63088;BME280;49173;43.164;27.786;2023-04-25T08:17:36;99574.88;;;20.75;50.27
63088;BME280;49173;43.164;27.786;2023-04-25T08:20:04;99562.09;;;20.67;51.03
63088;BME280;49173;43.164;27.786;2023-04-25T08:22:34;99569.22;;;20.60;50.25
63088;BME280;49173;43.164;27.786;2023-04-25T08:25:04;99564.22;;;20.39;50.66
63088;BME280;49173;43.164;27.786;2023-04-25T08:27:33;99568.81;;;20.39;51.42
63088;BME280;49173;43.164;27.786;2023-04-25T08:29:59;99573.41;;;20.38;51.65
63088;BME280;49173;43.164;27.786;2023-04-25T08:32:28;99572.03;;;20.34;52.21
63088;BME280;49173;43.164;27.786;2023-04-25T08:34:55;99574.72;;;20.26;51.87
63088;BME280;49173;43.164;27.786;2023-04-25T08:37:23;99572.50;;;20.21;52.06
63088;BME280;49173;43.164;27.786;2023-04-25T08:39:50;99578.97;;;20.20;52.17
63088;BME280;49173;43.164;27.786;2023-04-25T08:42:21;99576.03;;;20.14;51.09
63088;BME280;49173;43.164;27.786;2023-04-25T08:44:53;99568.69;;;20.06;52.49
63088;BME280;49173;43.164;27.786;2023-04-25T08:47:23;99568.25;;;20.19;53.50
63088;BME280;49173;43.164;27.786;2023-04-25T08:49:53;99568.41;;;20.17;51.73
63088;BME280;49173;43.164;27.786;2023-04-25T08:52:23;99570.28;;;20.17;52.80
63088;BME280;49173;43.164;27.786;2023-04-25T08:54:52;99573.34;;;20.22;53.76
63088;BME280;49173;43.164;27.786;2023-04-25T08:57:23;99573.22;;;20.23;53.90
63088;BME280;49173;43.164;27.786;2023-04-25T08:59:49;99575.09;;;20.31;53.48
63088;BME280;49173;43.164;27.786;2023-04-25T09:02:17;99582.06;;;20.34;52.40
63088;BME280;49173;43.164;27.786;2023-04-25T09:04:48;99580.03;;;20.36;52.96
63088;BME280;49173;43.164;27.786;2023-04-25T09:07:15;99584.13;;;20.32;52.31
63088;BME280;49173;43.164;27.786;2023-04-25T09:09:45;99586.69;;;20.33;52.91
63088;BME280;49173;43.164;27.786;2023-04-25T09:12:13;99580.56;;;20.31;52.75
63088;BME280;49173;43.164;27.786;2023-04-25T09:14:40;99582.94;;;20.34;53.22
63088;BME280;49173;43.164;27.786;2023-04-25T09:17:08;99578.34;;;20.35;53.21
63088;BME280;49173;43.164;27.786;2023-04-25T09:19:36;99579.84;;;20.29;52.78
63088;BME280;49173;43.164;27.786;2023-04-25T09:22:06;99578.84;;;20.30;53.60
63088;BME280;49173;43.164;27.786;2023-04-25T09:27:07;99580.22;;;20.34;54.52
63088;BME280;49173;43.164;27.786;2023-04-25T09:29:39;99574.25;;;20.30;51.99
63088;BME280;49173;43.164;27.786;2023-04-25T09:32:23;99572.19;;;20.33;53.04
63088;BME280;49173;43.164;27.786;2023-04-25T09:34:55;99567.59;;;20.25;53.18
63088;BME280;49173;43.164;27.786;2023-04-25T09:37:26;99576.81;;;20.32;52.69
63088;BME280;49173;43.164;27.786;2023-04-25T09:39:58;99570.16;;;20.35;53.52
63088;BME280;49173;43.164;27.786;2023-04-25T09:42:33;99561.88;;;20.44;54.56
63088;BME280;49173;43.164;27.786;2023-04-25T09:45:02;99567.66;;;20.49;53.46
63088;BME280;49173;43.164;27.786;2023-04-25T09:47:29;99558.31;;;20.52;53.13
63088;BME280;49173;43.164;27.786;2023-04-25T09:49:56;99552.19;;;20.58;53.53
63088;BME280;49173;43.164;27.786;2023-04-25T09:52:24;99555.78;;;20.67;53.50
63088;BME280;49173;43.164;27.786;2023-04-25T09:54:51;99548.81;;;20.72;52.94
63088;BME280;49173;43.164;27.786;2023-04-25T09:57:22;99554.41;;;20.79;53.05
63088;BME280;49173;43.164;27.786;2023-04-25T09:59:52;99547.09;;;20.88;52.97
63088;BME280;49173;43.164;27.786;2023-04-25T10:02:23;99550.00;;;20.86;52.35
63088;BME280;49173;43.164;27.786;2023-04-25T10:04:54;99536.00;;;20.89;53.09
63088;BME280;49173;43.164;27.786;2023-04-25T10:07:40;99541.47;;;20.97;53.08
63088;BME280;49173;43.164;27.786;2023-04-25T10:10:09;99539.25;;;21.09;52.76
63088;BME280;49173;43.164;27.786;2023-04-25T10:12:39;99524.03;;;21.23;51.73
63088;BME280;49173;43.164;27.786;2023-04-25T10:15:09;99523.38;;;21.37;52.55
63088;BME280;49173;43.164;27.786;2023-04-25T10:17:54;99514.78;;;21.48;51.06
63088;BME280;49173;43.164;27.786;2023-04-25T10:20:22;99518.53;;;21.55;50.54
63088;BME280;49173;43.164;27.786;2023-04-25T10:22:55;99514.44;;;21.51;49.65
63088;BME280;49173;43.164;27.786;2023-04-25T10:25:24;99502.13;;;21.55;50.45
63088;BME280;49173;43.164;27.786;2023-04-25T10:27:53;99502.28;;;21.62;49.51
63088;BME280;49173;43.164;27.786;2023-04-25T10:30:21;99497.63;;;21.71;50.00
63088;BME280;49173;43.164;27.786;2023-04-25T10:32:48;99492.13;;;21.87;51.52
63088;BME280;49173;43.164;27.786;2023-04-25T10:35:23;99488.97;;;21.98;50.02
63088;BME280;49173;43.164;27.786;2023-04-25T10:38:08;99488.63;;;22.09;48.94
63088;BME280;49173;43.164;27.786;2023-04-25T10:40:35;99479.50;;;22.17;49.54
63088;BME280;49173;43.164;27.786;2023-04-25T10:43:43;99477.09;;;22.22;48.79
63088;BME280;49173;43.164;27.786;2023-04-25T10:46:16;99489.13;;;22.36;49.44
63088;BME280;49173;43.164;27.786;2023-04-25T10:48:50;99473.97;;;22.48;48.98
63088;BME280;49173;43.164;27.786;2023-04-25T10:51:21;99482.81;;;22.58;48.10
63088;BME280;49173;43.164;27.786;2023-04-25T10:53:58;99474.28;;;22.53;47.56
63088;BME280;49173;43.164;27.786;2023-04-25T10:56:30;99476.13;;;22.38;46.98
63088;BME280;49173;43.164;27.786;2023-04-25T10:59:09;99472.59;;;22.29;47.14
63088;BME280;49173;43.164;27.786;2023-04-25T11:01:47;99485.72;;;22.34;47.89
63088;BME280;49173;43.164;27.786;2023-04-25T11:04:25;99485.19;;;22.38;47.01
63088;BME280;49173;43.164;27.786;2023-04-25T11:09:41;99474.41;;;22.60;49.11
63088;BME280;49173;43.164;27.786;2023-04-25T11:12:10;99471.25;;;22.71;47.28
63088;BME280;49173;43.164;27.786;2023-04-25T11:14:39;99477.50;;;22.80;47.02
63088;BME280;49173;43.164;27.786;2023-04-25T11:17:08;99472.16;;;22.86;47.55
63088;BME280;49173;43.164;27.786;2023-04-25T11:19:37;99474.38;;;22.83;47.49
63088;BME280;49173;43.164;27.786;2023-04-25T11:22:05;99470.34;;;22.79;46.89
63088;BME280;49173;43.164;27.786;2023-04-25T11:24:38;99462.66;;;22.74;45.92
63088;BME280;49173;43.164;27.786;2023-04-25T11:27:08;99462.56;;;22.67;47.05
63088;BME280;49173;43.164;27.786;2023-04-25T11:29:35;99459.63;;;22.69;46.19
63088;BME280;49173;43.164;27.786;2023-04-25T11:32:01;99459.47;;;22.70;46.14
63088;BME280;49173;43.164;27.786;2023-04-25T11:34:30;99460.44;;;22.78;47.15
63088;BME280;49173;43.164;27.786;2023-04-25T11:36:57;99455.03;;;22.69;46.77
63088;BME280;49173;43.164;27.786;2023-04-25T11:39:24;99455.88;;;22.70;47.04
63088;BME280;49173;43.164;27.786;2023-04-25T11:41:52;99453.25;;;22.77;47.45
63088;BME280;49173;43.164;27.786;2023-04-25T11:44:19;99445.09;;;22.68;45.26
63088;BME280;49173;43.164;27.786;2023-04-25T11:46:47;99446.72;;;22.63;46.33
63088;BME280;49173;43.164;27.786;2023-04-25T11:49:15;99436.91;;;22.68;45.37
63088;BME280;49173;43.164;27.786;2023-04-25T11:51:46;99433.69;;;22.65;45.99
63088;BME280;49173;43.164;27.786;2023-04-25T11:54:13;99428.75;;;22.60;48.23
63088;BME280;49173;43.164;27.786;2023-04-25T11:56:46;99426.03;;;22.60;48.26
63088;BME280;49173;43.164;27.786;2023-04-25T11:59:13;99424.34;;;22.59;49.05
63088;BME280;49173;43.164;27.786;2023-04-25T12:01:48;99417.69;;;22.77;48.63
63088;BME280;49173;43.164;27.786;2023-04-25T12:04:23;99430.03;;;22.72;48.62
63088;BME280;49173;43.164;27.786;2023-04-25T12:06:54;99429.81;;;22.59;48.04
63088;BME280;49173;43.164;27.786;2023-04-25T12:09:29;99417.56;;;22.32;46.77
63088;BME280;49173;43.164;27.786;2023-04-25T12:11:58;99421.44;;;22.15;46.84
63088;BME280;49173;43.164;27.786;2023-04-25T12:14:26;99425.84;;;21.93;47.80
63088;BME280;49173;43.164;27.786;2023-04-25T12:16:56;99423.56;;;21.74;47.85
63088;BME280;49173;43.164;27.786;2023-04-25T12:19:35;99410.03;;;21.41;47.16
63088;BME280;49173;43.164;27.786;2023-04-25T12:22:10;99418.34;;;21.08;47.57
63088;BME280;49173;43.164;27.786;2023-04-25T12:24:46;99421.09;;;20.84;49.47
63088;BME280;49173;43.164;27.786;2023-04-25T12:27:14;99419.06;;;20.78;49.47
63088;BME280;49173;43.164;27.786;2023-04-25T12:29:53;99416.00;;;20.81;49.61
63088;BME280;49173;43.164;27.786;2023-04-25T12:32:21;99413.09;;;20.91;50.04
63088;BME280;49173;43.164;27.786;2023-04-25T12:34:47;99416.00;;;20.81;50.02
63088;BME280;49173;43.164;27.786;2023-04-25T12:37:14;99414.84;;;20.67;50.42
63088;BME280;49173;43.164;27.786;2023-04-25T12:39:43;99419.44;;;20.59;50.87
63088;BME280;49173;43.164;27.786;2023-04-25T12:42:11;99415.84;;;20.50;51.25
63088;BME280;49173;43.164;27.786;2023-04-25T12:44:40;99406.97;;;20.40;51.42
63088;BME280;49173;43.164;27.786;2023-04-25T12:47:10;99402.38;;;20.32;54.22
63088;BME280;49173;43.164;27.786;2023-04-25T12:49:37;99403.06;;;20.26;55.49
63088;BME280;49173;43.164;27.786;2023-04-25T12:52:05;99395.91;;;20.17;56.05
63088;BME280;49173;43.164;27.786;2023-04-25T12:54:33;99387.38;;;20.12;56.54
63088;BME280;49173;43.164;27.786;2023-04-25T12:57:00;99401.88;;;20.20;57.07
63088;BME280;49173;43.164;27.786;2023-04-25T12:59:30;99397.44;;;20.11;55.02
63088;BME280;49173;43.164;27.786;2023-04-25T13:02:00;99387.03;;;19.98;54.80